sensor_id;sensor_type;location;lat;lon;timestamp;P1;durP1;ratioP1;P2;durP2;ratioP2
61756;SDS011;57225;61.460;24.060;2024-03-06T00:00:04;2.35;;;1.10;;
61756;SDS011;57225;61.460;24.060;2024-03-06T00:02:54;2.78;;;0.98;;
61756;SDS011;57225;61.460;24.060;2024-03-06T00:05:39;8.18;;;1.27;;
61756;SDS011;57225;61.460;24.060;2024-03-06T00:08:23;4.88;;;1.88;;
61756;SDS011;57225;61.460;24.060;2024-03-06T00:11:08;5.55;;;1.05;;
61756;SDS011;57225;61.460;24.060;2024-03-06T00:13:52;3.30;;;1.08;;
61756;SDS011;57225;61.460;24.060;2024-03-06T00:16:37;3.08;;;0.90;;
61756;SDS011;57225;61.460;24.060;2024-03-06T00:19:22;2.58;;;0.95;;
61756;SDS011;57225;61.460;24.060;2024-03-06T00:22:07;4.45;;;1.02;;
61756;SDS011;57225;61.460;24.060;2024-03-06T00:24:51;3.88;;;0.90;;
61756;SDS011;57225;61.460;24.060;2024-03-06T00:27:36;3.83;;;1.10;;
61756;SDS011;57225;61.460;24.060;2024-03-06T00:30:20;2.47;;;1.10;;
61756;SDS011;57225;61.460;24.060;2024-03-06T00:33:05;3.38;;;0.80;;
61756;SDS011;57225;61.460;24.060;2024-03-06T00:35:50;2.75;;;1.10;;
61756;SDS011;57225;61.460;24.060;2024-03-06T00:38:34;5.90;;;1.10;;
61756;SDS011;57225;61.460;24.060;2024-03-06T00:41:19;2.67;;;1.00;;
61756;SDS011;57225;61.460;24.060;2024-03-06T00:44:03;3.92;;;0.98;;
61756;SDS011;57225;61.460;24.060;2024-03-06T00:46:49;5.55;;;1.10;;
61756;SDS011;57225;61.460;24.060;2024-03-06T00:49:34;4.20;;;0.80;;
61756;SDS011;57225;61.460;24.060;2024-03-06T00:52:18;4.28;;;0.98;;
61756;SDS011;57225;61.460;24.060;2024-03-06T00:55:03;2.80;;;1.00;;
61756;SDS011;57225;61.460;24.060;2024-03-06T00:57:48;5.35;;;1.10;;
61756;SDS011;57225;61.460;24.060;2024-03-06T01:00:33;1.98;;;0.93;;
61756;SDS011;57225;61.460;24.060;2024-03-06T01:03:17;3.63;;;1.00;;
61756;SDS011;57225;61.460;24.060;2024-03-06T01:06:02;4.82;;;1.20;;
61756;SDS011;57225;61.460;24.060;2024-03-06T01:08:46;3.60;;;1.10;;
61756;SDS011;57225;61.460;24.060;2024-03-06T01:11:31;4.65;;;1.13;;
61756;SDS011;57225;61.460;24.060;2024-03-06T01:14:15;1.70;;;0.85;;
61756;SDS011;57225;61.460;24.060;2024-03-06T01:17:00;2.40;;;0.90;;
61756;SDS011;57225;61.460;24.060;2024-03-06T01:19:46;2.25;;;0.90;;
61756;SDS011;57225;61.460;24.060;2024-03-06T01:22:30;2.25;;;1.20;;
61756;SDS011;57225;61.460;24.060;2024-03-06T01:25:15;1.98;;;0.80;;
61756;SDS011;57225;61.460;24.060;2024-03-06T01:27:59;2.58;;;0.95;;
61756;SDS011;57225;61.460;24.060;2024-03-06T01:30:44;3.28;;;0.88;;
61756;SDS011;57225;61.460;24.060;2024-03-06T01:33:28;4.60;;;1.00;;
61756;SDS011;57225;61.460;24.060;2024-03-06T01:36:13;2.38;;;0.93;;
61756;SDS011;57225;61.460;24.060;2024-03-06T01:38:57;4.45;;;1.13;;
61756;SDS011;57225;61.460;24.060;2024-03-06T01:41:48;2.88;;;1.10;;
61756;SDS011;57225;61.460;24.060;2024-03-06T01:44:33;4.10;;;0.80;;
61756;SDS011;57225;61.460;24.060;2024-03-06T01:47:17;1.80;;;1.00;;
61756;SDS011;57225;61.460;24.060;2024-03-06T01:50:02;2.60;;;1.00;;
61756;SDS011;57225;61.460;24.060;2024-03-06T01:52:46;4.15;;;0.95;;
61756;SDS011;57225;61.460;24.060;2024-03-06T01:55:34;7.07;;;1.00;;
61756;SDS011;57225;61.460;24.060;2024-03-06T01:58:19;2.30;;;0.90;;
61756;SDS011;57225;61.460;24.060;2024-03-06T02:22:28;2.17;;;0.93;;
61756;SDS011;57225;61.460;24.060;2024-03-06T02:25:13;9.20;;;1.25;;
61756;SDS011;57225;61.460;24.060;2024-03-06T02:27:58;3.00;;;1.15;;
61756;SDS011;57225;61.460;24.060;2024-03-06T02:30:43;3.80;;;1.23;;
61756;SDS011;57225;61.460;24.060;2024-03-06T02:33:28;4.75;;;1.45;;
61756;SDS011;57225;61.460;24.060;2024-03-06T02:36:13;2.97;;;1.08;;
61756;SDS011;57225;61.460;24.060;2024-03-06T02:38:58;2.80;;;1.30;;
61756;SDS011;57225;61.460;24.060;2024-03-06T02:41:42;5.82;;;1.40;;
61756;SDS011;57225;61.460;24.060;2024-03-06T02:44:26;4.55;;;1.65;;
61756;SDS011;57225;61.460;24.060;2024-03-06T02:47:11;4.65;;;1.20;;
61756;SDS011;57225;61.460;24.060;2024-03-06T02:49:56;4.32;;;1.40;;
61756;SDS011;57225;61.460;24.060;2024-03-06T02:52:40;4.10;;;1.73;;
61756;SDS011;57225;61.460;24.060;2024-03-06T02:55:25;5.60;;;1.63;;
61756;SDS011;57225;61.460;24.060;2024-03-06T02:58:10;5.97;;;2.22;;
61756;SDS011;57225;61.460;24.060;2024-03-06T03:00:54;5.63;;;2.65;;
61756;SDS011;57225;61.460;24.060;2024-03-06T03:03:42;9.30;;;2.25;;
61756;SDS011;57225;61.460;24.060;2024-03-06T03:06:28;5.68;;;2.35;;
61756;SDS011;57225;61.460;24.060;2024-03-06T03:09:12;5.45;;;2.30;;
61756;SDS011;57225;61.460;24.060;2024-03-06T03:11:57;5.13;;;2.42;;
61756;SDS011;57225;61.460;24.060;2024-03-06T03:14:42;8.82;;;2.92;;
61756;SDS011;57225;61.460;24.060;2024-03-06T03:17:27;8.80;;;3.17;;
61756;SDS011;57225;61.460;24.060;2024-03-06T03:20:11;11.02;;;3.33;;
61756;SDS011;57225;61.460;24.060;2024-03-06T03:22:56;6.60;;;2.42;;
61756;SDS011;57225;61.460;24.060;2024-03-06T03:25:40;7.10;;;2.88;;
61756;SDS011;57225;61.460;24.060;2024-03-06T03:28:26;8.00;;;2.70;;
61756;SDS011;57225;61.460;24.060;2024-03-06T03:31:10;8.25;;;2.97;;
61756;SDS011;57225;61.460;24.060;2024-03-06T03:33:55;8.45;;;2.53;;
61756;SDS011;57225;61.460;24.060;2024-03-06T03:36:43;5.80;;;2.78;;
61756;SDS011;57225;61.460;24.060;2024-03-06T03:39:27;7.85;;;2.78;;
61756;SDS011;57225;61.460;24.060;2024-03-06T03:42:11;7.38;;;3.03;;
61756;SDS011;57225;61.460;24.060;2024-03-06T03:44:55;11.43;;;3.90;;
61756;SDS011;57225;61.460;24.060;2024-03-06T03:47:40;6.25;;;2.90;;
61756;SDS011;57225;61.460;24.060;2024-03-06T03:50:26;11.88;;;3.70;;
61756;SDS011;57225;61.460;24.060;2024-03-06T03:53:11;9.73;;;3.40;;
61756;SDS011;57225;61.460;24.060;2024-03-06T03:55:55;9.10;;;3.60;;
61756;SDS011;57225;61.460;24.060;2024-03-06T03:58:40;9.07;;;3.72;;
61756;SDS011;57225;61.460;24.060;2024-03-06T04:01:24;7.15;;;3.10;;
61756;SDS011;57225;61.460;24.060;2024-03-06T04:04:09;12.50;;;3.60;;
61756;SDS011;57225;61.460;24.060;2024-03-06T04:06:54;8.63;;;3.28;;
61756;SDS011;57225;61.460;24.060;2024-03-06T04:09:38;12.50;;;3.78;;
61756;SDS011;57225;61.460;24.060;2024-03-06T04:12:23;12.20;;;3.97;;
61756;SDS011;57225;61.460;24.060;2024-03-06T04:15:07;15.38;;;4.05;;
61756;SDS011;57225;61.460;24.060;2024-03-06T04:17:52;15.55;;;4.03;;
61756;SDS011;57225;61.460;24.060;2024-03-06T04:20:36;10.38;;;3.60;;
61756;SDS011;57225;61.460;24.060;2024-03-06T04:23:21;11.55;;;4.22;;
61756;SDS011;57225;61.460;24.060;2024-03-06T04:26:05;9.18;;;3.88;;
61756;SDS011;57225;61.460;24.060;2024-03-06T04:28:50;11.88;;;3.78;;
61756;SDS011;57225;61.460;24.060;2024-03-06T04:31:34;8.55;;;3.65;;
61756;SDS011;57225;61.460;24.060;2024-03-06T04:34:19;10.20;;;3.65;;
61756;SDS011;57225;61.460;24.060;2024-03-06T04:37:04;12.50;;;4.15;;
61756;SDS011;57225;61.460;24.060;2024-03-06T04:39:48;13.18;;;3.30;;
61756;SDS011;57225;61.460;24.060;2024-03-06T04:42:34;12.05;;;3.90;;
61756;SDS011;57225;61.460;24.060;2024-03-06T04:45:21;13.37;;;4.83;;
61756;SDS011;57225;61.460;24.060;2024-03-06T04:48:06;12.73;;;4.25;;
61756;SDS011;57225;61.460;24.060;2024-03-06T04:50:51;8.82;;;3.97;;
61756;SDS011;57225;61.460;24.060;2024-03-06T04:53:36;17.90;;;4.07;;
61756;SDS011;57225;61.460;24.060;2024-03-06T04:56:21;13.52;;;3.53;;
61756;SDS011;57225;61.460;24.060;2024-03-06T04:59:06;11.52;;;4.05;;
61756;SDS011;57225;61.460;24.060;2024-03-06T05:01:50;10.77;;;4.28;;
61756;SDS011;57225;61.460;24.060;2024-03-06T05:04:35;15.30;;;4.68;;
61756;SDS011;57225;61.460;24.060;2024-03-06T05:07:19;11.77;;;3.53;;
61756;SDS011;57225;61.460;24.060;2024-03-06T05:10:04;12.02;;;3.88;;
61756;SDS011;57225;61.460;24.060;2024-03-06T05:12:51;11.02;;;3.60;;
61756;SDS011;57225;61.460;24.060;2024-03-06T05:15:36;14.60;;;4.05;;
61756;SDS011;57225;61.460;24.060;2024-03-06T05:18:20;16.40;;;4.60;;
61756;SDS011;57225;61.460;24.060;2024-03-06T05:21:05;12.02;;;3.95;;
61756;SDS011;57225;61.460;24.060;2024-03-06T05:23:49;12.73;;;4.72;;
61756;SDS011;57225;61.460;24.060;2024-03-06T05:29:36;13.57;;;4.30;;
61756;SDS011;57225;61.460;24.060;2024-03-06T05:32:21;15.88;;;4.47;;
61756;SDS011;57225;61.460;24.060;2024-03-06T05:35:05;17.58;;;4.57;;
61756;SDS011;57225;61.460;24.060;2024-03-06T05:37:53;14.77;;;5.30;;
61756;SDS011;57225;61.460;24.060;2024-03-06T05:40:37;13.30;;;4.53;;
61756;SDS011;57225;61.460;24.060;2024-03-06T05:43:23;22.15;;;5.13;;
61756;SDS011;57225;61.460;24.060;2024-03-06T05:46:08;16.90;;;4.95;;
61756;SDS011;57225;61.460;24.060;2024-03-06T05:48:52;22.00;;;5.47;;
61756;SDS011;57225;61.460;24.060;2024-03-06T05:51:37;12.60;;;4.93;;
61756;SDS011;57225;61.460;24.060;2024-03-06T05:54:21;19.83;;;4.75;;
61756;SDS011;57225;61.460;24.060;2024-03-06T05:57:06;18.98;;;4.43;;
61756;SDS011;57225;61.460;24.060;2024-03-06T05:59:54;18.07;;;5.70;;
61756;SDS011;57225;61.460;24.060;2024-03-06T06:02:38;16.60;;;5.47;;
61756;SDS011;57225;61.460;24.060;2024-03-06T06:05:23;26.80;;;5.22;;
61756;SDS011;57225;61.460;24.060;2024-03-06T06:08:07;20.25;;;5.43;;
61756;SDS011;57225;61.460;24.060;2024-03-06T06:10:52;30.13;;;5.13;;
61756;SDS011;57225;61.460;24.060;2024-03-06T06:13:38;15.95;;;4.70;;
61756;SDS011;57225;61.460;24.060;2024-03-06T06:16:25;27.45;;;6.13;;
61756;SDS011;57225;61.460;24.060;2024-03-06T06:19:10;29.45;;;5.15;;
61756;SDS011;57225;61.460;24.060;2024-03-06T06:21:54;34.35;;;5.90;;
61756;SDS011;57225;61.460;24.060;2024-03-06T06:24:39;27.90;;;5.28;;
61756;SDS011;57225;61.460;24.060;2024-03-06T06:27:24;25.13;;;5.03;;
61756;SDS011;57225;61.460;24.060;2024-03-06T06:30:10;28.85;;;5.32;;
61756;SDS011;57225;61.460;24.060;2024-03-06T06:32:55;26.85;;;5.57;;
61756;SDS011;57225;61.460;24.060;2024-03-06T06:35:40;28.55;;;6.38;;
61756;SDS011;57225;61.460;24.060;2024-03-06T06:38:24;29.52;;;4.93;;
61756;SDS011;57225;61.460;24.060;2024-03-06T06:41:08;29.60;;;5.35;;
61756;SDS011;57225;61.460;24.060;2024-03-06T06:43:53;37.60;;;5.55;;
61756;SDS011;57225;61.460;24.060;2024-03-06T06:46:38;30.60;;;5.00;;
61756;SDS011;57225;61.460;24.060;2024-03-06T06:49:22;33.80;;;5.13;;
61756;SDS011;57225;61.460;24.060;2024-03-06T06:52:07;32.85;;;5.35;;
61756;SDS011;57225;61.460;24.060;2024-03-06T06:54:52;44.50;;;6.43;;
61756;SDS011;57225;61.460;24.060;2024-03-06T06:57:37;21.80;;;4.22;;
61756;SDS011;57225;61.460;24.060;2024-03-06T07:00:21;21.88;;;4.90;;
61756;SDS011;57225;61.460;24.060;2024-03-06T07:03:06;22.98;;;5.07;;
61756;SDS011;57225;61.460;24.060;2024-03-06T07:05:51;19.48;;;6.00;;
61756;SDS011;57225;61.460;24.060;2024-03-06T07:08:36;36.90;;;5.55;;
61756;SDS011;57225;61.460;24.060;2024-03-06T07:11:21;16.35;;;4.68;;
61756;SDS011;57225;61.460;24.060;2024-03-06T07:14:05;21.25;;;4.80;;
61756;SDS011;57225;61.460;24.060;2024-03-06T07:16:50;22.77;;;5.00;;
61756;SDS011;57225;61.460;24.060;2024-03-06T07:19:34;25.35;;;4.32;;
61756;SDS011;57225;61.460;24.060;2024-03-06T07:22:21;10.38;;;4.05;;
61756;SDS011;57225;61.460;24.060;2024-03-06T07:25:05;10.93;;;4.40;;
61756;SDS011;57225;61.460;24.060;2024-03-06T07:27:50;15.63;;;4.18;;
61756;SDS011;57225;61.460;24.060;2024-03-06T07:30:35;18.30;;;3.88;;
61756;SDS011;57225;61.460;24.060;2024-03-06T07:33:19;11.35;;;3.03;;
61756;SDS011;57225;61.460;24.060;2024-03-06T07:36:04;10.32;;;3.22;;
61756;SDS011;57225;61.460;24.060;2024-03-06T07:38:48;9.25;;;3.38;;
61756;SDS011;57225;61.460;24.060;2024-03-06T07:41:33;7.00;;;3.22;;
61756;SDS011;57225;61.460;24.060;2024-03-06T07:44:18;6.72;;;2.80;;
61756;SDS011;57225;61.460;24.060;2024-03-06T07:47:04;22.05;;;3.33;;
61756;SDS011;57225;61.460;24.060;2024-03-06T07:49:48;6.93;;;2.55;;
61756;SDS011;57225;61.460;24.060;2024-03-06T07:52:34;15.40;;;2.90;;
61756;SDS011;57225;61.460;24.060;2024-03-06T07:55:20;8.25;;;2.40;;
61756;SDS011;57225;61.460;24.060;2024-03-06T07:58:05;10.38;;;2.53;;
61756;SDS011;57225;61.460;24.060;2024-03-06T08:00:49;12.52;;;2.65;;
61756;SDS011;57225;61.460;24.060;2024-03-06T08:03:38;9.60;;;2.80;;
61756;SDS011;57225;61.460;24.060;2024-03-06T08:06:23;7.93;;;2.60;;
61756;SDS011;57225;61.460;24.060;2024-03-06T08:09:09;11.15;;;2.53;;
61756;SDS011;57225;61.460;24.060;2024-03-06T08:11:53;8.65;;;2.35;;
61756;SDS011;57225;61.460;24.060;2024-03-06T08:14:38;10.70;;;2.25;;
61756;SDS011;57225;61.460;24.060;2024-03-06T08:17:23;14.10;;;2.10;;
61756;SDS011;57225;61.460;24.060;2024-03-06T08:20:07;5.40;;;2.10;;
61756;SDS011;57225;61.460;24.060;2024-03-06T08:22:53;15.00;;;2.55;;
61756;SDS011;57225;61.460;24.060;2024-03-06T08:25:41;5.97;;;2.30;;
61756;SDS011;57225;61.460;24.060;2024-03-06T08:28:26;8.40;;;2.30;;
61756;SDS011;57225;61.460;24.060;2024-03-06T08:31:10;6.07;;;2.13;;
61756;SDS011;57225;61.460;24.060;2024-03-06T08:33:55;13.60;;;1.98;;
61756;SDS011;57225;61.460;24.060;2024-03-06T08:36:39;4.55;;;1.42;;
61756;SDS011;57225;61.460;24.060;2024-03-06T08:39:24;5.13;;;1.20;;
61756;SDS011;57225;61.460;24.060;2024-03-06T08:42:08;4.47;;;1.70;;
61756;SDS011;57225;61.460;24.060;2024-03-06T08:44:53;3.13;;;1.23;;
61756;SDS011;57225;61.460;24.060;2024-03-06T08:47:37;3.78;;;1.10;;
61756;SDS011;57225;61.460;24.060;2024-03-06T08:50:22;10.10;;;1.10;;
61756;SDS011;57225;61.460;24.060;2024-03-06T08:53:06;4.97;;;1.17;;
61756;SDS011;57225;61.460;24.060;2024-03-06T08:55:53;4.78;;;1.00;;
61756;SDS011;57225;61.460;24.060;2024-03-06T08:58:37;2.28;;;1.00;;
61756;SDS011;57225;61.460;24.060;2024-03-06T09:01:22;5.20;;;1.23;;
61756;SDS011;57225;61.460;24.060;2024-03-06T09:04:06;2.25;;;1.00;;
61756;SDS011;57225;61.460;24.060;2024-03-06T09:06:51;2.00;;;0.90;;
61756;SDS011;57225;61.460;24.060;2024-03-06T09:09:35;3.97;;;0.75;;
61756;SDS011;57225;61.460;24.060;2024-03-06T09:12:21;3.10;;;1.02;;
61756;SDS011;57225;61.460;24.060;2024-03-06T09:15:05;2.95;;;0.80;;
61756;SDS011;57225;61.460;24.060;2024-03-06T09:17:51;3.42;;;0.80;;
61756;SDS011;57225;61.460;24.060;2024-03-06T09:20:35;2.72;;;0.63;;
61756;SDS011;57225;61.460;24.060;2024-03-06T09:23:20;1.92;;;0.95;;
61756;SDS011;57225;61.460;24.060;2024-03-06T09:26:04;4.43;;;1.00;;
61756;SDS011;57225;61.460;24.060;2024-03-06T09:28:49;2.22;;;0.90;;
61756;SDS011;57225;61.460;24.060;2024-03-06T09:31:34;2.35;;;0.65;;
61756;SDS011;57225;61.460;24.060;2024-03-06T09:34:18;1.58;;;0.90;;
61756;SDS011;57225;61.460;24.060;2024-03-06T09:37:05;2.47;;;0.70;;
61756;SDS011;57225;61.460;24.060;2024-03-06T09:39:49;4.47;;;1.10;;
61756;SDS011;57225;61.460;24.060;2024-03-06T09:42:34;3.83;;;1.00;;
61756;SDS011;57225;61.460;24.060;2024-03-06T09:45:19;4.57;;;0.90;;
61756;SDS011;57225;61.460;24.060;2024-03-06T09:48:03;3.20;;;0.80;;
61756;SDS011;57225;61.460;24.060;2024-03-06T09:50:48;2.72;;;0.90;;
61756;SDS011;57225;61.460;24.060;2024-03-06T09:53:34;3.97;;;0.93;;
61756;SDS011;57225;61.460;24.060;2024-03-06T09:56:18;3.30;;;1.00;;
61756;SDS011;57225;61.460;24.060;2024-03-06T09:59:06;4.75;;;1.00;;
61756;SDS011;57225;61.460;24.060;2024-03-06T10:01:54;5.15;;;1.02;;
61756;SDS011;57225;61.460;24.060;2024-03-06T10:04:40;2.20;;;1.08;;
61756;SDS011;57225;61.460;24.060;2024-03-06T10:07:25;5.55;;;1.20;;
61756;SDS011;57225;61.460;24.060;2024-03-06T10:10:11;3.45;;;0.88;;
61756;SDS011;57225;61.460;24.060;2024-03-06T10:12:55;3.38;;;0.90;;
61756;SDS011;57225;61.460;24.060;2024-03-06T10:16:03;2.78;;;1.02;;
61756;SDS011;57225;61.460;24.060;2024-03-06T10:18:52;2.47;;;1.10;;
61756;SDS011;57225;61.460;24.060;2024-03-06T10:21:37;4.35;;;0.98;;
61756;SDS011;57225;61.460;24.060;2024-03-06T10:24:22;1.90;;;0.70;;
61756;SDS011;57225;61.460;24.060;2024-03-06T10:27:07;3.08;;;0.88;;
61756;SDS011;57225;61.460;24.060;2024-03-06T10:30:02;5.57;;;1.00;;
61756;SDS011;57225;61.460;24.060;2024-03-06T10:32:47;5.47;;;1.13;;
61756;SDS011;57225;61.460;24.060;2024-03-06T10:35:33;3.85;;;0.90;;
61756;SDS011;57225;61.460;24.060;2024-03-06T10:38:21;1.95;;;1.00;;
61756;SDS011;57225;61.460;24.060;2024-03-06T10:41:09;7.75;;;1.30;;
61756;SDS011;57225;61.460;24.060;2024-03-06T10:43:57;4.88;;;1.08;;
61756;SDS011;57225;61.460;24.060;2024-03-06T10:46:44;2.20;;;1.10;;
61756;SDS011;57225;61.460;24.060;2024-03-06T10:49:31;3.63;;;1.33;;
61756;SDS011;57225;61.460;24.060;2024-03-06T10:52:18;2.60;;;0.80;;
61756;SDS011;57225;61.460;24.060;2024-03-06T10:55:03;9.18;;;1.30;;
61756;SDS011;57225;61.460;24.060;2024-03-06T10:57:48;5.05;;;1.05;;
61756;SDS011;57225;61.460;24.060;2024-03-06T11:00:40;4.13;;;1.05;;
61756;SDS011;57225;61.460;24.060;2024-03-06T11:03:27;3.10;;;1.10;;
61756;SDS011;57225;61.460;24.060;2024-03-06T11:06:14;1.98;;;0.95;;
61756;SDS011;57225;61.460;24.060;2024-03-06T11:09:00;5.57;;;1.10;;
61756;SDS011;57225;61.460;24.060;2024-03-06T11:11:47;2.25;;;0.82;;
61756;SDS011;57225;61.460;24.060;2024-03-06T11:14:36;3.13;;;0.95;;
61756;SDS011;57225;61.460;24.060;2024-03-06T11:17:25;7.10;;;1.00;;
61756;SDS011;57225;61.460;24.060;2024-03-06T11:28:38;10.98;;;1.58;;
61756;SDS011;57225;61.460;24.060;2024-03-06T11:31:25;10.55;;;1.88;;
61756;SDS011;57225;61.460;24.060;2024-03-06T11:34:10;7.45;;;1.80;;
61756;SDS011;57225;61.460;24.060;2024-03-06T11:39:43;8.63;;;1.98;;
61756;SDS011;57225;61.460;24.060;2024-03-06T11:42:34;8.75;;;1.65;;
61756;SDS011;57225;61.460;24.060;2024-03-06T11:45:28;7.10;;;1.80;;
61756;SDS011;57225;61.460;24.060;2024-03-06T11:48:15;6.10;;;1.67;;
61756;SDS011;57225;61.460;24.060;2024-03-06T11:51:03;10.95;;;2.22;;
61756;SDS011;57225;61.460;24.060;2024-03-06T11:53:51;8.32;;;1.65;;
61756;SDS011;57225;61.460;24.060;2024-03-06T11:56:40;5.20;;;1.70;;
61756;SDS011;57225;61.460;24.060;2024-03-06T11:59:28;7.45;;;1.58;;
61756;SDS011;57225;61.460;24.060;2024-03-06T12:02:16;6.07;;;1.50;;
61756;SDS011;57225;61.460;24.060;2024-03-06T12:05:04;5.60;;;1.70;;
61756;SDS011;57225;61.460;24.060;2024-03-06T12:07:49;5.65;;;1.25;;
61756;SDS011;57225;61.460;24.060;2024-03-06T12:10:38;7.80;;;1.42;;
61756;SDS011;57225;61.460;24.060;2024-03-06T12:13:24;10.00;;;1.48;;
61756;SDS011;57225;61.460;24.060;2024-03-06T12:16:09;13.13;;;1.50;;
61756;SDS011;57225;61.460;24.060;2024-03-06T12:18:56;4.90;;;1.50;;
61756;SDS011;57225;61.460;24.060;2024-03-06T12:21:42;7.93;;;1.40;;
61756;SDS011;57225;61.460;24.060;2024-03-06T12:24:27;8.20;;;1.98;;
61756;SDS011;57225;61.460;24.060;2024-03-06T12:27:11;5.93;;;1.50;;
61756;SDS011;57225;61.460;24.060;2024-03-06T12:29:57;5.28;;;1.35;;
61756;SDS011;57225;61.460;24.060;2024-03-06T12:32:41;6.47;;;1.52;;
61756;SDS011;57225;61.460;24.060;2024-03-06T12:35:27;8.07;;;1.30;;
61756;SDS011;57225;61.460;24.060;2024-03-06T12:38:12;6.95;;;1.35;;
61756;SDS011;57225;61.460;24.060;2024-03-06T12:41:00;5.20;;;1.40;;
61756;SDS011;57225;61.460;24.060;2024-03-06T12:43:44;4.18;;;1.35;;
61756;SDS011;57225;61.460;24.060;2024-03-06T12:46:28;3.78;;;1.50;;
61756;SDS011;57225;61.460;24.060;2024-03-06T12:49:13;8.68;;;1.65;;
61756;SDS011;57225;61.460;24.060;2024-03-06T12:51:58;8.98;;;1.33;;
61756;SDS011;57225;61.460;24.060;2024-03-06T12:54:43;5.97;;;1.45;;
61756;SDS011;57225;61.460;24.060;2024-03-06T12:57:27;6.60;;;1.40;;
61756;SDS011;57225;61.460;24.060;2024-03-06T13:00:12;5.13;;;1.23;;
61756;SDS011;57225;61.460;24.060;2024-03-06T13:02:59;7.78;;;1.40;;
61756;SDS011;57225;61.460;24.060;2024-03-06T13:05:44;3.60;;;1.23;;
61756;SDS011;57225;61.460;24.060;2024-03-06T13:08:30;5.50;;;1.30;;
61756;SDS011;57225;61.460;24.060;2024-03-06T13:11:15;5.72;;;1.08;;
61756;SDS011;57225;61.460;24.060;2024-03-06T13:13:59;4.43;;;1.30;;
61756;SDS011;57225;61.460;24.060;2024-03-06T13:16:44;7.10;;;1.23;;
61756;SDS011;57225;61.460;24.060;2024-03-06T13:19:29;5.15;;;1.40;;
61756;SDS011;57225;61.460;24.060;2024-03-06T13:22:14;6.72;;;1.35;;
61756;SDS011;57225;61.460;24.060;2024-03-06T13:24:58;5.80;;;2.10;;
61756;SDS011;57225;61.460;24.060;2024-03-06T13:27:43;3.85;;;1.05;;
61756;SDS011;57225;61.460;24.060;2024-03-06T13:30:27;2.90;;;1.23;;
61756;SDS011;57225;61.460;24.060;2024-03-06T13:33:12;7.43;;;1.58;;
61756;SDS011;57225;61.460;24.060;2024-03-06T13:35:56;5.50;;;1.15;;
61756;SDS011;57225;61.460;24.060;2024-03-06T13:38:41;5.95;;;1.33;;
61756;SDS011;57225;61.460;24.060;2024-03-06T13:41:25;8.00;;;1.35;;
61756;SDS011;57225;61.460;24.060;2024-03-06T13:44:10;3.63;;;1.15;;
61756;SDS011;57225;61.460;24.060;2024-03-06T13:46:54;6.97;;;1.20;;
61756;SDS011;57225;61.460;24.060;2024-03-06T13:49:40;5.28;;;1.30;;
61756;SDS011;57225;61.460;24.060;2024-03-06T13:52:25;6.05;;;1.20;;
61756;SDS011;57225;61.460;24.060;2024-03-06T13:55:09;7.05;;;1.40;;
61756;SDS011;57225;61.460;24.060;2024-03-06T13:57:54;2.47;;;1.33;;
61756;SDS011;57225;61.460;24.060;2024-03-06T14:00:39;2.03;;;0.90;;
61756;SDS011;57225;61.460;24.060;2024-03-06T14:03:24;5.13;;;1.35;;
61756;SDS011;57225;61.460;24.060;2024-03-06T14:06:09;4.60;;;1.10;;
61756;SDS011;57225;61.460;24.060;2024-03-06T14:08:53;4.07;;;1.30;;
61756;SDS011;57225;61.460;24.060;2024-03-06T14:11:39;3.70;;;1.30;;
61756;SDS011;57225;61.460;24.060;2024-03-06T14:14:24;5.55;;;1.30;;
61756;SDS011;57225;61.460;24.060;2024-03-06T14:17:08;5.70;;;1.27;;
61756;SDS011;57225;61.460;24.060;2024-03-06T14:19:53;6.30;;;1.02;;
61756;SDS011;57225;61.460;24.060;2024-03-06T14:22:37;4.07;;;1.27;;
61756;SDS011;57225;61.460;24.060;2024-03-06T14:25:22;5.82;;;1.30;;
61756;SDS011;57225;61.460;24.060;2024-03-06T14:28:06;4.45;;;1.20;;
61756;SDS011;57225;61.460;24.060;2024-03-06T14:30:51;3.58;;;1.20;;
61756;SDS011;57225;61.460;24.060;2024-03-06T14:33:40;5.40;;;1.48;;
61756;SDS011;57225;61.460;24.060;2024-03-06T14:36:24;4.05;;;1.40;;
61756;SDS011;57225;61.460;24.060;2024-03-06T14:39:09;3.63;;;1.20;;
61756;SDS011;57225;61.460;24.060;2024-03-06T14:41:55;4.35;;;1.20;;
61756;SDS011;57225;61.460;24.060;2024-03-06T14:44:39;5.65;;;1.23;;
61756;SDS011;57225;61.460;24.060;2024-03-06T14:47:23;5.40;;;1.58;;
61756;SDS011;57225;61.460;24.060;2024-03-06T14:50:08;3.05;;;1.30;;
61756;SDS011;57225;61.460;24.060;2024-03-06T14:52:53;5.32;;;1.30;;
61756;SDS011;57225;61.460;24.060;2024-03-06T14:55:37;5.55;;;1.08;;
61756;SDS011;57225;61.460;24.060;2024-03-06T14:58:22;3.00;;;1.00;;
61756;SDS011;57225;61.460;24.060;2024-03-06T15:01:07;5.00;;;1.15;;
61756;SDS011;57225;61.460;24.060;2024-03-06T15:03:52;6.57;;;1.40;;
61756;SDS011;57225;61.460;24.060;2024-03-06T15:06:37;2.72;;;0.95;;
61756;SDS011;57225;61.460;24.060;2024-03-06T15:09:22;5.70;;;1.20;;
61756;SDS011;57225;61.460;24.060;2024-03-06T15:12:09;4.53;;;0.90;;
61756;SDS011;57225;61.460;24.060;2024-03-06T15:14:54;4.95;;;1.50;;
61756;SDS011;57225;61.460;24.060;2024-03-06T15:17:40;3.65;;;1.10;;
61756;SDS011;57225;61.460;24.060;2024-03-06T15:20:25;3.88;;;1.50;;
61756;SDS011;57225;61.460;24.060;2024-03-06T15:23:11;4.35;;;1.20;;
61756;SDS011;57225;61.460;24.060;2024-03-06T15:25:55;5.18;;;1.35;;
61756;SDS011;57225;61.460;24.060;2024-03-06T15:28:40;2.58;;;0.90;;
61756;SDS011;57225;61.460;24.060;2024-03-06T15:31:24;1.77;;;0.88;;
61756;SDS011;57225;61.460;24.060;2024-03-06T15:34:09;1.85;;;0.95;;
61756;SDS011;57225;61.460;24.060;2024-03-06T15:36:53;3.17;;;1.05;;
61756;SDS011;57225;61.460;24.060;2024-03-06T15:39:38;6.53;;;1.60;;
61756;SDS011;57225;61.460;24.060;2024-03-06T15:42:24;4.20;;;1.42;;
61756;SDS011;57225;61.460;24.060;2024-03-06T15:45:09;9.52;;;1.77;;
61756;SDS011;57225;61.460;24.060;2024-03-06T15:47:56;9.10;;;1.65;;
61756;SDS011;57225;61.460;24.060;2024-03-06T15:50:40;6.72;;;1.80;;
61756;SDS011;57225;61.460;24.060;2024-03-06T15:53:25;7.80;;;2.45;;
61756;SDS011;57225;61.460;24.060;2024-03-06T15:56:13;4.28;;;2.13;;
61756;SDS011;57225;61.460;24.060;2024-03-06T15:58:58;8.27;;;2.65;;
61756;SDS011;57225;61.460;24.060;2024-03-06T16:01:43;5.40;;;1.83;;
61756;SDS011;57225;61.460;24.060;2024-03-06T16:04:30;5.55;;;2.38;;
61756;SDS011;57225;61.460;24.060;2024-03-06T16:07:15;9.00;;;1.63;;
61756;SDS011;57225;61.460;24.060;2024-03-06T16:09:59;5.93;;;1.52;;
61756;SDS011;57225;61.460;24.060;2024-03-06T16:12:43;5.07;;;1.60;;
61756;SDS011;57225;61.460;24.060;2024-03-06T16:15:28;5.85;;;1.83;;
61756;SDS011;57225;61.460;24.060;2024-03-06T16:18:12;6.95;;;2.00;;
61756;SDS011;57225;61.460;24.060;2024-03-06T16:20:57;8.95;;;2.10;;
61756;SDS011;57225;61.460;24.060;2024-03-06T16:23:42;6.03;;;2.60;;
61756;SDS011;57225;61.460;24.060;2024-03-06T16:29:39;12.18;;;2.75;;
61756;SDS011;57225;61.460;24.060;2024-03-06T16:32:24;9.10;;;3.15;;
61756;SDS011;57225;61.460;24.060;2024-03-06T16:35:08;7.60;;;2.53;;
61756;SDS011;57225;61.460;24.060;2024-03-06T16:37:53;6.72;;;2.90;;
61756;SDS011;57225;61.460;24.060;2024-03-06T16:40:39;7.32;;;3.30;;
61756;SDS011;57225;61.460;24.060;2024-03-06T16:43:24;11.52;;;3.00;;
61756;SDS011;57225;61.460;24.060;2024-03-06T16:46:09;9.60;;;2.75;;
61756;SDS011;57225;61.460;24.060;2024-03-06T16:48:53;12.25;;;2.90;;
61756;SDS011;57225;61.460;24.060;2024-03-06T16:51:38;9.20;;;2.78;;
61756;SDS011;57225;61.460;24.060;2024-03-06T16:54:22;6.70;;;2.20;;